createdAt,value
2022-12-03T00:00:21.938Z,6.38
2022-12-03T00:02:24.073Z,5.45
2022-12-03T00:04:26.253Z,6.18
2022-12-03T00:06:33.028Z,6.38
2022-12-03T00:08:36.413Z,5.85
2022-12-03T00:10:38.454Z,5.63
2022-12-03T00:12:40.692Z,5.20
2022-12-03T00:14:44.851Z,5.65
2022-12-03T00:16:47.625Z,4.97
2022-12-03T00:18:49.638Z,5.55
2022-12-03T00:20:51.679Z,5.22
2022-12-03T00:22:53.659Z,5.40
2022-12-03T00:24:55.916Z,5.57
2022-12-03T00:26:58.359Z,5.68
2022-12-03T00:29:00.383Z,5.15
2022-12-03T00:31:02.423Z,5.32
2022-12-03T00:33:04.685Z,5.13
2022-12-03T00:35:07.528Z,5.35
2022-12-03T00:37:09.734Z,5.25
2022-12-03T00:39:11.678Z,5.00
2022-12-03T00:41:13.764Z,5.43
2022-12-03T00:43:15.743Z,5.30
2022-12-03T00:45:17.761Z,6.25
2022-12-03T00:47:19.752Z,5.40
2022-12-03T00:49:21.768Z,6.18
2022-12-03T00:51:23.855Z,6.05
2022-12-03T00:53:25.770Z,6.32
2022-12-03T00:55:27.676Z,6.22
2022-12-03T00:57:29.761Z,6.03
2022-12-03T00:59:31.689Z,6.75
2022-12-03T01:01:33.849Z,6.00
2022-12-03T01:03:36.139Z,6.60
2022-12-03T01:05:38.153Z,6.15
2022-12-03T01:07:40.098Z,6.53
2022-12-03T01:09:42.051Z,6.70
2022-12-03T01:11:44.009Z,6.45
2022-12-03T01:13:46.000Z,6.93
2022-12-03T01:15:48.392Z,7.32
2022-12-03T01:17:50.489Z,7.40
2022-12-03T01:19:52.802Z,7.68
2022-12-03T01:21:55.664Z,7.30
2022-12-03T01:23:57.662Z,7.95
2022-12-03T01:25:59.688Z,7.85
2022-12-03T01:28:01.774Z,6.55
2022-12-03T01:30:05.133Z,7.13
2022-12-03T01:32:10.411Z,8.07
2022-12-03T01:34:12.414Z,6.65
2022-12-03T01:36:14.656Z,7.28
2022-12-03T01:38:16.746Z,7.43
2022-12-03T01:40:21.490Z,7.25
2022-12-03T01:42:26.895Z,8.63
2022-12-03T01:44:32.147Z,7.22
2022-12-03T01:46:41.866Z,8.20
2022-12-03T01:48:44.410Z,7.32
2022-12-03T01:50:46.533Z,7.15
2022-12-03T01:52:48.603Z,8.30
2022-12-03T01:54:55.901Z,8.02
2022-12-03T01:56:59.048Z,8.23
2022-12-03T01:59:00.951Z,8.00
2022-12-03T02:01:10.617Z,7.28
2022-12-03T02:03:25.108Z,7.53
2022-12-03T02:05:30.994Z,7.70
2022-12-03T02:07:33.996Z,7.30
2022-12-03T02:09:35.998Z,7.90
2022-12-03T02:11:42.836Z,7.53
2022-12-03T02:13:45.628Z,8.20
2022-12-03T02:15:47.607Z,7.05
2022-12-03T02:17:49.713Z,8.98
2022-12-03T02:19:53.750Z,8.05
2022-12-03T02:22:07.988Z,7.78
2022-12-03T02:24:22.222Z,7.25
2022-12-03T02:26:24.402Z,6.90
2022-12-03T02:28:26.407Z,7.72
2022-12-03T02:30:30.302Z,6.90
2022-12-03T02:32:32.653Z,7.35
2022-12-03T02:34:40.664Z,7.28
2022-12-03T02:36:42.637Z,7.20
2022-12-03T02:38:48.901Z,7.03
2022-12-03T02:40:56.268Z,7.13
2022-12-03T02:43:01.476Z,6.85
2022-12-03T02:45:09.781Z,6.53
2022-12-03T02:47:12.002Z,6.78
2022-12-03T02:49:14.241Z,6.85
2022-12-03T02:51:16.406Z,6.55
2022-12-03T02:53:24.112Z,7.65
2022-12-03T02:55:31.972Z,6.68
2022-12-03T02:57:40.377Z,5.95
2022-12-03T02:59:45.467Z,6.30
2022-12-03T03:01:48.623Z,6.60
2022-12-03T03:03:51.818Z,6.88
2022-12-03T03:05:56.889Z,6.43
2022-12-03T03:08:00.260Z,6.22
2022-12-03T03:10:04.159Z,5.80
2022-12-03T03:12:06.711Z,5.53
2022-12-03T03:14:08.801Z,5.78
2022-12-03T03:16:10.981Z,6.32
2022-12-03T03:18:15.342Z,4.82
2022-12-03T03:20:17.938Z,6.50
2022-12-03T03:22:19.912Z,5.55
2022-12-03T03:24:23.061Z,5.68
2022-12-03T03:26:25.442Z,5.75
2022-12-03T03:28:29.533Z,5.95
2022-12-03T03:30:32.674Z,5.85
2022-12-03T03:32:35.019Z,5.40
2022-12-03T03:34:36.979Z,5.47
2022-12-03T03:36:39.834Z,5.60
2022-12-03T03:38:42.851Z,4.95
2022-12-03T03:40:45.054Z,5.68
2022-12-03T03:42:47.883Z,4.93
2022-12-03T03:44:50.318Z,5.25
2022-12-03T03:46:52.487Z,3.95
2022-12-03T03:48:54.584Z,4.07
2022-12-03T03:50:57.059Z,4.45
2022-12-03T03:53:01.620Z,4.57
2022-12-03T03:55:05.102Z,5.05
2022-12-03T03:57:07.618Z,4.35
2022-12-03T03:59:09.680Z,4.68
2022-12-03T04:01:13.811Z,4.35
2022-12-03T04:03:15.852Z,5.00
2022-12-03T04:05:21.133Z,5.00
2022-12-03T04:07:23.159Z,5.25
2022-12-03T04:09:25.040Z,5.05
2022-12-03T04:11:30.155Z,4.35
2022-12-03T04:13:32.075Z,4.90
2022-12-03T04:15:34.154Z,4.53
2022-12-03T04:17:37.279Z,4.80
2022-12-03T04:19:39.158Z,4.85
2022-12-03T04:21:44.176Z,5.47
2022-12-03T04:23:46.092Z,4.07
2022-12-03T04:25:51.076Z,5.38
2022-12-03T04:27:56.090Z,5.75
2022-12-03T04:29:58.036Z,5.80
2022-12-03T04:32:03.119Z,5.18
2022-12-03T04:34:08.218Z,6.60
2022-12-03T04:36:10.136Z,5.55
2022-12-03T04:38:15.235Z,5.30
2022-12-03T04:40:20.300Z,5.55
2022-12-03T04:42:22.402Z,4.95
2022-12-03T04:44:27.621Z,6.05
2022-12-03T04:46:29.631Z,6.10
2022-12-03T04:48:31.546Z,6.28
2022-12-03T04:50:33.519Z,6.22
2022-12-03T04:52:35.517Z,6.28
2022-12-03T04:54:38.547Z,6.93
2022-12-03T04:56:40.555Z,6.85
2022-12-03T04:58:42.482Z,7.20
2022-12-03T05:00:44.385Z,7.10
2022-12-03T05:02:46.358Z,6.55
2022-12-03T05:04:48.456Z,7.57
2022-12-03T05:06:50.520Z,7.57
2022-12-03T05:08:52.561Z,7.65
2022-12-03T05:10:54.511Z,7.35
2022-12-03T05:12:56.798Z,8.73
2022-12-03T05:14:58.716Z,6.95
2022-12-03T05:17:00.802Z,7.97
2022-12-03T05:19:04.413Z,8.43
2022-12-03T05:21:06.620Z,8.55
2022-12-03T05:23:10.617Z,8.50
2022-12-03T05:25:12.475Z,7.63
2022-12-03T05:27:15.783Z,9.90
2022-12-03T05:29:20.798Z,8.02
2022-12-03T05:31:23.082Z,8.18
2022-12-03T05:33:25.144Z,7.00
2022-12-03T05:35:27.253Z,7.40
2022-12-03T05:37:29.270Z,7.38
2022-12-03T05:39:31.266Z,7.15
2022-12-03T05:41:36.395Z,7.15
2022-12-03T05:43:38.369Z,7.13
2022-12-03T05:45:42.597Z,7.07
2022-12-03T05:47:44.720Z,7.80
2022-12-03T05:49:46.818Z,6.22
2022-12-03T05:51:52.543Z,6.82
2022-12-03T05:53:58.978Z,6.45
2022-12-03T05:56:00.940Z,6.22
2022-12-03T05:58:03.564Z,6.05
2022-12-03T06:00:08.076Z,5.18
2022-12-03T06:02:10.153Z,5.57
2022-12-03T06:04:15.359Z,5.45
2022-12-03T06:06:17.319Z,5.63
2022-12-03T06:08:19.311Z,6.82
2022-12-03T06:10:24.449Z,6.05
2022-12-03T06:12:26.725Z,6.43
2022-12-03T06:14:30.317Z,7.25
2022-12-03T06:16:32.515Z,6.95
2022-12-03T06:18:34.503Z,6.50
2022-12-03T06:20:36.527Z,6.43
2022-12-03T06:22:38.470Z,6.80
2022-12-03T06:24:40.409Z,6.35
2022-12-03T06:26:42.315Z,6.07
2022-12-03T06:28:46.499Z,6.45
2022-12-03T06:30:48.456Z,7.25
2022-12-03T06:32:50.397Z,6.60
2022-12-03T06:34:52.682Z,7.68
2022-12-03T06:36:54.843Z,6.28
2022-12-03T06:38:56.864Z,6.80
2022-12-03T06:40:58.828Z,6.88
2022-12-03T06:43:00.769Z,6.13
2022-12-03T06:45:03.141Z,6.13
2022-12-03T06:47:05.141Z,6.43
2022-12-03T06:49:09.248Z,5.82
2022-12-03T06:51:11.308Z,5.00
2022-12-03T06:53:13.301Z,5.43
2022-12-03T06:55:15.513Z,6.25
2022-12-03T06:57:17.432Z,5.32
2022-12-03T06:59:19.336Z,6.30
2022-12-03T07:01:21.365Z,5.38
2022-12-03T07:03:23.491Z,5.70
2022-12-03T07:05:25.513Z,5.07
2022-12-03T07:07:27.486Z,6.40
2022-12-03T07:09:29.684Z,5.13
2022-12-03T07:11:31.697Z,5.18
2022-12-03T07:13:33.638Z,5.53
2022-12-03T07:15:35.576Z,5.72
2022-12-03T07:17:37.519Z,5.50
2022-12-03T07:19:39.597Z,5.60
2022-12-03T07:21:41.556Z,5.32
2022-12-03T07:23:43.612Z,4.95
2022-12-03T07:25:45.568Z,6.50
2022-12-03T07:27:47.555Z,5.18
2022-12-03T07:29:49.614Z,5.32
2022-12-03T07:31:51.686Z,5.22
2022-12-03T07:33:53.768Z,4.70
2022-12-03T07:35:55.655Z,5.20
2022-12-03T07:37:57.657Z,4.47
2022-12-03T07:39:59.778Z,4.18
2022-12-03T07:42:02.355Z,4.75
2022-12-03T07:44:09.147Z,5.43
2022-12-03T07:46:14.545Z,4.32
2022-12-03T07:48:16.552Z,4.88
2022-12-03T07:50:18.469Z,4.75
2022-12-03T07:52:20.465Z,5.10
2022-12-03T07:54:22.584Z,4.28
2022-12-03T07:56:24.471Z,4.65
2022-12-03T07:58:27.356Z,4.90
2022-12-03T08:00:29.340Z,5.00
2022-12-03T08:02:31.536Z,4.63
2022-12-03T08:04:33.646Z,4.57
2022-12-03T08:06:35.771Z,4.57
2022-12-03T08:08:37.945Z,4.85
2022-12-03T08:10:40.219Z,4.60
2022-12-03T08:12:42.295Z,4.78
2022-12-03T08:14:45.013Z,4.93
2022-12-03T08:16:48.617Z,4.70
2022-12-03T08:18:53.798Z,4.45
2022-12-03T08:20:55.874Z,4.55
2022-12-03T08:22:58.072Z,5.40
2022-12-03T08:25:00.194Z,4.35
2022-12-03T08:27:02.448Z,4.25
2022-12-03T08:29:10.293Z,4.32
2022-12-03T08:31:20.346Z,4.68
2022-12-03T08:33:28.695Z,4.38
2022-12-03T08:35:31.544Z,3.92
2022-12-03T08:37:36.305Z,3.58
2022-12-03T08:39:47.159Z,4.10
2022-12-03T08:43:59.267Z,3.83
2022-12-03T08:46:01.531Z,3.70
2022-12-03T08:48:11.111Z,3.72
2022-12-03T08:50:30.166Z,3.90
2022-12-03T08:52:34.919Z,3.47
2022-12-03T08:54:37.441Z,3.40
2022-12-03T08:56:39.623Z,3.17
2022-12-03T08:58:44.456Z,3.75
2022-12-03T09:00:46.633Z,3.83
2022-12-03T09:02:52.687Z,3.55
2022-12-03T09:04:55.227Z,3.80
2022-12-03T09:06:58.686Z,3.10
2022-12-03T09:09:06.393Z,3.47
2022-12-03T09:11:08.887Z,2.80
2022-12-03T09:13:11.038Z,3.10
2022-12-03T09:15:13.144Z,3.50
2022-12-03T09:17:15.149Z,2.95
2022-12-03T09:19:17.238Z,3.08
2022-12-03T09:21:19.271Z,4.03
2022-12-03T09:23:21.325Z,3.22
2022-12-03T09:25:23.542Z,3.20
2022-12-03T09:27:25.613Z,3.17
2022-12-03T09:29:27.713Z,3.20
2022-12-03T09:31:29.846Z,3.40
2022-12-03T09:33:32.714Z,3.03
2022-12-03T09:35:34.945Z,3.00
2022-12-03T09:37:37.358Z,3.40
2022-12-03T09:39:39.472Z,3.20
2022-12-03T09:41:41.617Z,3.35
2022-12-03T09:44:03.190Z,3.05
2022-12-03T09:46:06.381Z,3.00
2022-12-03T09:48:08.461Z,2.92
2022-12-03T09:50:16.215Z,3.33
2022-12-03T09:52:26.321Z,3.63
2022-12-03T09:54:31.046Z,3.58
2022-12-03T09:56:36.917Z,3.10
2022-12-03T09:58:38.975Z,2.90
2022-12-03T10:00:43.105Z,3.63
2022-12-03T10:02:47.186Z,2.88
2022-12-03T10:04:49.670Z,3.22
2022-12-03T10:06:51.937Z,2.70
2022-12-03T10:08:55.245Z,3.22
2022-12-03T10:10:57.337Z,3.33
2022-12-03T10:13:00.033Z,3.33
2022-12-03T10:15:02.614Z,2.90
2022-12-03T10:17:05.589Z,3.03
2022-12-03T10:19:19.533Z,2.60
2022-12-03T10:21:29.845Z,2.17
2022-12-03T10:23:32.204Z,2.45
2022-12-03T10:25:49.795Z,2.85
2022-12-03T10:27:57.065Z,2.70
2022-12-03T10:30:02.096Z,2.72
2022-12-03T10:32:08.293Z,3.10
2022-12-03T10:34:11.750Z,3.05
2022-12-03T10:36:18.647Z,2.38
2022-12-03T10:38:23.240Z,3.15
2022-12-03T10:40:29.144Z,2.55
2022-12-03T10:42:38.839Z,2.70
2022-12-03T10:44:40.852Z,2.83
2022-12-03T10:46:43.534Z,2.72
2022-12-03T10:48:45.807Z,2.78
2022-12-03T10:50:51.652Z,2.20
2022-12-03T10:52:53.737Z,3.15
2022-12-03T10:54:56.297Z,2.60
2022-12-03T10:56:58.765Z,3.38
2022-12-03T10:59:00.931Z,3.47
2022-12-03T11:01:07.408Z,2.58
2022-12-03T11:03:19.955Z,2.53
2022-12-03T11:05:27.716Z,2.60
2022-12-03T11:07:31.458Z,3.08
2022-12-03T11:09:33.850Z,2.65
2022-12-03T11:11:35.884Z,3.47
2022-12-03T11:13:38.646Z,2.70
2022-12-03T11:15:44.618Z,2.53
2022-12-03T11:17:50.101Z,2.10
2022-12-03T11:19:53.137Z,3.33
2022-12-03T11:22:01.535Z,2.58
2022-12-03T11:24:04.968Z,2.40
2022-12-03T11:26:06.931Z,2.85
2022-12-03T11:28:12.818Z,2.70
2022-12-03T11:30:37.708Z,3.13
2022-12-03T11:32:43.315Z,2.90
2022-12-03T11:34:45.313Z,2.70
2022-12-03T11:37:01.623Z,2.30
2022-12-03T11:39:04.412Z,2.80
2022-12-03T11:41:11.109Z,2.80
2022-12-03T11:43:13.252Z,3.15
2022-12-03T11:45:19.277Z,2.95
2022-12-03T11:47:21.434Z,2.55
2022-12-03T11:49:28.403Z,2.47
2022-12-03T11:51:31.391Z,3.20
2022-12-03T11:53:35.692Z,2.90
2022-12-03T11:55:41.139Z,2.95
2022-12-03T11:57:43.726Z,4.18
2022-12-03T11:59:53.007Z,3.42
2022-12-03T12:01:55.221Z,3.13
2022-12-03T12:03:57.459Z,3.03
2022-12-03T12:06:08.543Z,3.08
2022-12-03T12:08:19.891Z,3.25
2022-12-03T12:10:28.202Z,3.90
2022-12-03T12:12:35.741Z,4.32
2022-12-03T12:14:38.210Z,3.33
2022-12-03T12:16:50.742Z,3.47
2022-12-03T12:18:55.477Z,4.35
2022-12-03T12:21:21.080Z,6.38
2022-12-03T12:23:29.321Z,4.95
2022-12-03T12:25:37.591Z,3.85
2022-12-03T12:27:45.849Z,3.90
2022-12-03T12:29:53.976Z,3.45
2022-12-03T12:32:03.229Z,4.30
2022-12-03T12:34:11.713Z,3.67
2022-12-03T12:36:13.768Z,4.63
2022-12-03T12:38:19.673Z,4.00
2022-12-03T12:40:27.058Z,4.47
2022-12-03T12:42:33.176Z,4.22
2022-12-03T12:44:35.215Z,3.50
2022-12-03T12:46:47.676Z,4.60
2022-12-03T12:48:50.624Z,4.05
2022-12-03T12:51:01.854Z,4.35
2022-12-03T12:53:12.488Z,3.72
2022-12-03T12:55:16.644Z,3.88
2022-12-03T12:57:23.120Z,4.07
2022-12-03T12:59:26.505Z,4.03
2022-12-03T13:01:30.306Z,4.00
2022-12-03T13:03:37.247Z,4.30
2022-12-03T13:05:42.880Z,3.72
2022-12-03T13:07:45.795Z,3.63
2022-12-03T13:09:54.911Z,3.80
2022-12-03T13:12:04.069Z,4.20
2022-12-03T13:14:14.321Z,3.42
2022-12-03T13:16:22.692Z,4.50
2022-12-03T13:18:30.994Z,4.53
2022-12-03T13:20:33.223Z,3.90
2022-12-03T13:22:35.323Z,4.70
2022-12-03T13:24:44.381Z,4.70
2022-12-03T13:26:46.499Z,4.57
2022-12-03T13:28:49.321Z,4.20
2022-12-03T13:30:51.312Z,4.50
2022-12-03T13:32:53.820Z,4.28
2022-12-03T13:35:02.603Z,4.28
2022-12-03T13:37:14.276Z,5.03
2022-12-03T13:39:20.461Z,4.53
2022-12-03T13:41:25.750Z,5.28
2022-12-03T13:43:32.131Z,4.70
2022-12-03T13:45:40.378Z,4.38
2022-12-03T13:47:45.380Z,4.60
2022-12-03T13:49:53.961Z,4.35
2022-12-03T13:51:56.372Z,4.22
2022-12-03T13:53:59.915Z,5.13
2022-12-03T13:56:06.547Z,4.97
2022-12-03T13:58:09.281Z,4.65
2022-12-03T14:00:12.120Z,5.82
2022-12-03T14:02:14.357Z,5.30
2022-12-03T14:04:16.347Z,6.05
2022-12-03T14:06:18.580Z,6.38
2022-12-03T14:08:20.856Z,5.55
2022-12-03T14:10:23.018Z,5.75
2022-12-03T14:12:26.156Z,5.25
2022-12-03T14:14:28.271Z,6.30
2022-12-03T14:16:30.884Z,6.35
2022-12-03T14:18:32.978Z,6.30
2022-12-03T14:20:35.241Z,6.75
2022-12-03T14:22:38.236Z,6.60
2022-12-03T14:24:40.410Z,5.55
2022-12-03T14:26:42.557Z,5.97
2022-12-03T14:28:44.864Z,5.88
2022-12-03T14:30:46.980Z,5.78
2022-12-03T14:32:49.180Z,5.93
2022-12-03T14:34:51.188Z,5.97
2022-12-03T14:36:53.298Z,6.43
2022-12-03T14:38:55.698Z,6.43
2022-12-03T14:40:57.727Z,5.97
2022-12-03T14:42:59.701Z,6.32
2022-12-03T14:45:01.759Z,6.35
2022-12-03T14:47:04.075Z,5.95
2022-12-03T14:49:06.124Z,6.55
2022-12-03T14:51:08.282Z,7.38
2022-12-03T14:53:10.308Z,7.07
2022-12-03T14:55:13.065Z,6.50
2022-12-03T14:57:15.892Z,6.90
2022-12-03T14:59:20.701Z,6.82
2022-12-03T15:01:25.371Z,7.03
2022-12-03T15:03:27.469Z,7.47
2022-12-03T15:05:29.531Z,5.78
2022-12-03T15:07:32.238Z,5.40
2022-12-03T15:09:35.059Z,5.57
2022-12-03T15:11:41.398Z,5.47
2022-12-03T15:13:46.829Z,6.07
2022-12-03T15:15:48.894Z,6.20
2022-12-03T15:17:51.056Z,6.70
2022-12-03T15:19:53.512Z,6.18
2022-12-03T15:21:55.798Z,6.30
2022-12-03T15:23:57.981Z,7.05
2022-12-03T15:26:00.106Z,7.70
2022-12-03T15:28:03.836Z,6.65
2022-12-03T15:30:07.351Z,6.40
2022-12-03T15:32:09.530Z,6.82
2022-12-03T15:34:11.656Z,7.05
2022-12-03T15:36:13.798Z,6.57
2022-12-03T15:38:15.909Z,7.57
2022-12-03T15:40:18.069Z,6.57
2022-12-03T15:42:20.141Z,6.43
2022-12-03T15:44:22.275Z,7.47
2022-12-03T15:46:24.884Z,6.72
2022-12-03T15:48:27.056Z,6.20
2022-12-03T15:50:29.332Z,6.50
2022-12-03T15:52:31.551Z,6.80
2022-12-03T15:54:34.007Z,7.25
2022-12-03T15:56:37.914Z,7.03
2022-12-03T15:58:40.952Z,7.07
2022-12-03T16:00:43.079Z,6.65
2022-12-03T16:02:50.732Z,7.50
2022-12-03T16:04:54.383Z,7.60
2022-12-03T16:06:56.454Z,7.07
2022-12-03T16:08:58.513Z,6.78
2022-12-03T16:11:00.638Z,7.13
2022-12-03T16:13:02.681Z,6.88
2022-12-03T16:15:08.318Z,7.50
2022-12-03T16:17:10.431Z,6.95
2022-12-03T16:19:12.644Z,5.88
2022-12-03T16:21:14.697Z,7.05
2022-12-03T16:23:16.732Z,7.75
2022-12-03T16:25:18.971Z,6.80
2022-12-03T16:27:25.494Z,7.55
2022-12-03T16:29:28.092Z,7.13
2022-12-03T16:31:30.332Z,6.97
2022-12-03T16:33:32.576Z,6.78
2022-12-03T16:35:34.683Z,7.28
2022-12-03T16:37:36.691Z,6.95
2022-12-03T16:39:39.334Z,7.65
2022-12-03T16:41:41.425Z,7.07
2022-12-03T16:43:46.213Z,6.95
2022-12-03T16:45:51.653Z,7.05
2022-12-03T16:47:54.636Z,7.75
2022-12-03T16:49:57.762Z,7.60
2022-12-03T16:51:59.940Z,7.03
2022-12-03T16:54:02.068Z,7.28
2022-12-03T16:56:04.212Z,6.30
2022-12-03T16:58:06.323Z,6.65
2022-12-03T17:00:09.041Z,7.25
2022-12-03T17:02:12.325Z,7.50
2022-12-03T17:04:14.411Z,7.47
2022-12-03T17:06:16.783Z,7.10
2022-12-03T17:08:19.122Z,7.78
2022-12-03T17:10:21.274Z,8.10
2022-12-03T17:12:25.443Z,7.25
2022-12-03T17:14:33.089Z,6.93
2022-12-03T17:16:35.676Z,7.05
2022-12-03T17:18:37.773Z,7.05
2022-12-03T17:20:39.900Z,7.22
2022-12-03T17:22:42.667Z,8.32
2022-12-03T17:24:44.718Z,8.13
2022-12-03T17:26:46.925Z,7.20
2022-12-03T17:28:49.019Z,8.40
2022-12-03T17:30:51.177Z,8.82
2022-12-03T17:32:53.432Z,7.95
2022-12-03T17:34:55.505Z,8.40
2022-12-03T17:36:57.727Z,7.90
2022-12-03T17:38:59.781Z,7.75
2022-12-03T17:41:02.119Z,7.47
2022-12-03T17:43:04.181Z,8.68
2022-12-03T17:45:07.273Z,9.07
2022-12-03T17:47:09.289Z,8.77
2022-12-03T17:49:11.310Z,8.48
2022-12-03T17:51:13.505Z,8.25
2022-12-03T17:53:15.515Z,8.55
2022-12-03T17:55:27.700Z,8.25
2022-12-03T17:57:35.809Z,7.57
2022-12-03T17:59:37.876Z,8.95
2022-12-03T18:01:41.792Z,8.23
2022-12-03T18:03:44.041Z,8.40
2022-12-03T18:05:46.252Z,9.15
2022-12-03T18:07:48.345Z,9.20
2022-12-03T18:09:50.411Z,8.30
2022-12-03T18:11:52.486Z,8.85
2022-12-03T18:13:54.710Z,9.13
2022-12-03T18:15:57.075Z,7.80
2022-12-03T18:17:59.238Z,8.25
2022-12-03T18:20:01.487Z,8.68
2022-12-03T18:22:03.577Z,9.25
2022-12-03T18:24:06.195Z,8.18
2022-12-03T18:26:09.156Z,8.40
2022-12-03T18:28:11.348Z,8.02
2022-12-03T18:30:13.858Z,9.50
2022-12-03T18:32:28.328Z,8.27
2022-12-03T18:34:31.135Z,8.35
2022-12-03T18:36:36.490Z,8.07
2022-12-03T18:38:38.944Z,8.98
2022-12-03T18:40:42.716Z,10.00
2022-12-03T18:42:45.117Z,8.57
2022-12-03T18:44:50.034Z,9.00
2022-12-03T18:46:53.890Z,8.52
2022-12-03T18:48:57.118Z,9.07
2022-12-03T18:50:59.488Z,8.25
2022-12-03T18:53:01.546Z,8.88
2022-12-03T18:55:04.728Z,8.95
2022-12-03T18:57:06.898Z,8.80
2022-12-03T18:59:09.792Z,9.35
2022-12-03T19:01:17.677Z,8.63
2022-12-03T19:03:19.958Z,9.25
2022-12-03T19:05:22.438Z,9.65
2022-12-03T19:07:24.772Z,9.02
2022-12-03T19:09:27.100Z,9.38
2022-12-03T19:11:29.367Z,9.25
2022-12-03T19:13:31.517Z,8.85
2022-12-03T19:15:37.331Z,8.45
2022-12-03T19:17:40.797Z,8.80
2022-12-03T19:19:43.076Z,9.77
2022-12-03T19:21:45.311Z,10.05
2022-12-03T19:24:22.226Z,8.27
2022-12-03T19:26:12.478Z,9.77
2022-12-03T19:28:14.689Z,9.15
2022-12-03T19:30:17.412Z,9.57
2022-12-03T19:32:19.596Z,8.82
2022-12-03T19:34:21.856Z,9.77
2022-12-03T19:36:28.233Z,10.02
2022-12-03T19:38:30.759Z,9.43
2022-12-03T19:40:32.893Z,9.57
2022-12-03T19:42:35.077Z,9.00
2022-12-03T19:44:37.336Z,9.68
2022-12-03T19:46:39.569Z,9.32
2022-12-03T19:48:42.113Z,9.50
2022-12-03T19:50:58.363Z,9.30
2022-12-03T19:53:11.294Z,9.45
2022-12-03T19:55:13.833Z,9.13
2022-12-03T19:57:22.873Z,10.50
2022-12-03T19:59:25.457Z,9.07
2022-12-03T20:01:30.140Z,9.90
2022-12-03T20:03:32.539Z,9.73
2022-12-03T20:05:38.939Z,9.68
2022-12-03T20:07:41.017Z,8.52
2022-12-03T20:09:43.631Z,10.15
2022-12-03T20:11:46.208Z,9.85
2022-12-03T20:13:52.613Z,10.60
2022-12-03T20:15:54.654Z,9.65
2022-12-03T20:17:56.911Z,9.63
2022-12-03T20:19:59.057Z,10.93
2022-12-03T20:22:02.954Z,11.05
2022-12-03T20:24:06.336Z,11.25
2022-12-03T20:26:11.851Z,10.57
2022-12-03T20:28:14.062Z,9.90
2022-12-03T20:30:16.550Z,10.68
2022-12-03T20:32:18.792Z,10.75
2022-12-03T20:34:21.096Z,9.50
2022-12-03T20:36:24.234Z,9.63
2022-12-03T20:38:26.830Z,9.70
2022-12-03T20:40:29.176Z,8.85
2022-12-03T20:42:31.456Z,10.27
2022-12-03T20:44:33.662Z,10.23
2022-12-03T20:46:36.483Z,10.20
2022-12-03T20:48:38.939Z,9.65
2022-12-03T20:50:41.889Z,9.90
2022-12-03T20:53:03.332Z,10.60
2022-12-03T20:55:06.736Z,9.70
2022-12-03T20:57:08.981Z,9.75
2022-12-03T20:59:13.646Z,9.57
2022-12-03T21:01:19.029Z,9.98
2022-12-03T21:03:21.558Z,9.90
2022-12-03T21:05:23.806Z,10.13
2022-12-03T21:07:26.249Z,10.00
2022-12-03T21:09:28.517Z,8.77
2022-12-03T21:11:32.010Z,10.77
2022-12-03T21:13:34.108Z,8.82
2022-12-03T21:15:36.167Z,9.38
2022-12-03T21:17:38.464Z,10.43
2022-12-03T21:19:40.748Z,9.73
2022-12-03T21:21:43.227Z,9.43
2022-12-03T21:23:45.477Z,10.00
2022-12-03T21:25:47.487Z,9.88
2022-12-03T21:27:50.195Z,9.10
2022-12-03T21:29:53.531Z,9.35
2022-12-03T21:31:55.950Z,10.13
2022-12-03T21:33:58.363Z,10.25
2022-12-03T21:36:01.344Z,9.77
2022-12-03T21:38:04.129Z,10.57
2022-12-03T21:40:07.336Z,9.43
2022-12-03T21:42:36.204Z,10.90
2022-12-03T21:44:31.971Z,10.18
2022-12-03T21:47:11.018Z,10.13
2022-12-03T21:48:56.475Z,9.90
2022-12-03T21:51:04.161Z,9.57
2022-12-03T21:53:06.899Z,11.38
2022-12-03T21:55:09.940Z,10.02
2022-12-03T21:57:12.055Z,9.63
2022-12-03T21:59:14.651Z,9.27
2022-12-03T22:01:19.525Z,10.35
2022-12-03T22:03:21.595Z,9.70
2022-12-03T22:05:23.588Z,9.52
2022-12-03T22:07:25.788Z,9.30
2022-12-03T22:09:28.104Z,9.88
2022-12-03T22:11:30.248Z,9.57
2022-12-03T22:13:32.432Z,9.73
2022-12-03T22:15:34.476Z,10.65
2022-12-03T22:17:38.773Z,8.93
2022-12-03T22:19:40.981Z,8.90
2022-12-03T22:21:43.131Z,9.63
2022-12-03T22:23:45.962Z,9.63
2022-12-03T22:25:48.073Z,9.52
2022-12-03T22:27:50.291Z,10.27
2022-12-03T22:29:52.600Z,10.60
2022-12-03T22:31:54.792Z,9.10
2022-12-03T22:33:56.816Z,9.45
2022-12-03T22:36:02.179Z,9.27
2022-12-03T22:38:04.452Z,10.38
2022-12-03T22:40:08.020Z,9.57
2022-12-03T22:42:10.354Z,9.80
2022-12-03T22:44:12.554Z,10.48
2022-12-03T22:46:16.123Z,11.02
2022-12-03T22:48:18.238Z,11.45
2022-12-03T22:50:20.276Z,10.63
2022-12-03T22:52:22.277Z,9.18
2022-12-03T22:54:24.496Z,10.07
2022-12-03T22:56:27.884Z,10.30
2022-12-03T22:58:31.526Z,10.88
2022-12-03T23:00:36.089Z,10.13
2022-12-03T23:02:38.381Z,9.77
2022-12-03T23:04:40.411Z,10.45
2022-12-03T23:06:43.663Z,9.23
2022-12-03T23:08:46.448Z,9.82
2022-12-03T23:10:50.972Z,9.95
2022-12-03T23:12:52.951Z,9.90
2022-12-03T23:14:55.463Z,9.75
2022-12-03T23:16:57.771Z,9.27
2022-12-03T23:19:01.559Z,10.73
2022-12-03T23:21:03.668Z,11.02
2022-12-03T23:23:05.698Z,10.30
2022-12-03T23:25:08.832Z,10.32
2022-12-03T23:27:11.147Z,10.45
2022-12-03T23:29:13.237Z,9.93
2022-12-03T23:31:20.227Z,9.82
2022-12-03T23:33:22.832Z,9.23
2022-12-03T23:35:24.776Z,10.60
2022-12-03T23:37:26.807Z,10.10
2022-12-03T23:39:28.870Z,10.80
2022-12-03T23:41:30.910Z,10.88
2022-12-03T23:43:33.064Z,9.23
2022-12-03T23:45:35.422Z,9.55
2022-12-03T23:47:37.532Z,10.10
2022-12-03T23:49:39.660Z,10.07
2022-12-03T23:51:41.620Z,10.00
2022-12-03T23:53:44.944Z,9.40
2022-12-03T23:55:46.948Z,9.85
2022-12-03T23:57:48.860Z,9.10
2022-12-03T23:59:51.459Z,10.75
